Time;durP1;ratioP1;P1;durP2;ratioP2;P2;SDS_P1;SDS_P2;PMS_P1;PMS_P2;Temp;Humidity;BMP_temperature;BMP_pressure;BME280_temperature;BME280_humidity;BME280_pressure;Samples;Min_cycle;Max_cycle;Signal;HPM_P1;HPM_P2
2021/07/27 00:09:56;;;;;;;5.22;4.72;;;;;;;26.32;39.65;100248.03;5114559;28;20097;-77
2021/07/27 00:12:25;;;;;;;6.88;5.18;;;;;;;26.15;39.62;100243.81;5112597;28;20558;-80
2021/07/27 00:14:56;;;;;;;5.55;5.05;;;;;;;26.23;39.90;100250.84;5112429;28;20043;-78
2021/07/27 00:17:24;;;;;;;5.38;4.88;;;;;;;26.26;39.63;100258.44;5112682;28;20478;-78
2021/07/27 00:19:52;;;;;;;4.68;4.28;;;;;;;26.24;40.32;100253.22;5112302;28;20035;-77
2021/07/27 00:22:23;;;;;;;5.85;4.75;;;;;;;26.23;40.41;100257.34;5112503;28;20520;-77
2021/07/27 00:24:51;;;;;;;7.95;4.55;;;;;;;26.05;40.08;100221.00;5129689;28;20474;-78
2021/07/27 00:27:20;;;;;;;6.43;4.45;;;;;;;26.17;39.61;100258.44;5113226;27;20020;-78
2021/07/27 00:29:48;;;;;;;5.78;4.80;;;;;;;26.10;40.29;100248.91;5114899;28;20430;-79
2021/07/27 00:32:13;;;;;;;4.65;4.25;;;;;;;26.12;40.21;100251.28;5116392;28;20042;-80
2021/07/27 00:34:42;;;;;;;5.55;4.82;;;;;;;26.14;40.25;100260.16;5116229;28;20427;-79
2021/07/27 00:37:17;;;;;;;4.72;4.30;;;;;;;26.05;40.62;100263.75;5116372;28;20065;-79
2021/07/27 00:39:45;;;;;;;4.40;4.07;;;;;;;26.04;40.60;100262.16;5116651;28;20024;-80
2021/07/27 00:42:14;;;;;;;6.55;4.82;;;;;;;25.95;40.77;100264.97;5133144;27;20077;-77
2021/07/27 00:44:43;;;;;;;6.30;4.55;;;;;;;25.91;40.82;100269.22;5133190;27;20461;-81
2021/07/27 00:47:11;;;;;;;5.70;4.25;;;;;;;25.86;40.85;100273.47;5099679;28;20031;-79
2021/07/27 00:49:38;;;;;;;4.95;4.53;;;;;;;25.80;40.75;100278.19;5115931;28;20110;-76
2021/07/27 00:52:08;;;;;;;5.45;4.93;;;;;;;25.74;41.29;100277.16;5116182;28;20107;-77
2021/07/27 00:54:34;;;;;;;4.85;4.10;;;;;;;25.67;41.37;100271.72;5115840;28;20035;-81
2021/07/27 00:57:00;;;;;;;5.38;4.90;;;;;;;25.67;41.69;100266.03;5116099;28;20024;-81
2021/07/27 00:59:35;;;;;;;5.00;4.60;;;;;;;25.71;42.32;100276.03;5132877;27;20032;-76
2021/07/27 01:02:00;;;;;;;8.30;5.03;;;;;;;25.75;41.99;100278.78;5115923;28;20106;-78
2021/07/27 01:04:26;;;;;;;5.93;5.32;;;;;;;25.74;42.15;100285.72;5115940;28;20419;-79
2021/07/27 01:06:54;;;;;;;10.70;4.97;;;;;;;25.79;42.28;100280.25;5116065;28;20343;-78
2021/07/27 01:09:20;;;;;;;5.32;4.93;;;;;;;25.78;42.06;100277.84;5116890;28;20020;-76
2021/07/27 01:11:48;;;;;;;5.22;4.57;;;;;;;25.94;41.65;100277.66;5115502;28;20028;-81
2021/07/27 01:14:18;;;;;;;6.88;4.78;;;;;;;25.90;42.15;100274.13;5117570;28;20031;-77
2021/07/27 01:16:48;;;;;;;6.03;4.95;;;;;;;25.60;42.01;100256.50;5116528;27;20047;-77
2021/07/27 01:44:04;;;;;;;5.35;4.75;;;;;;;25.39;42.50;100280.06;5116160;27;20474;-75
2021/07/27 01:46:36;;;;;;;5.38;4.88;;;;;;;25.39;42.58;100274.38;5131957;27;20024;-78
2021/07/27 01:49:05;;;;;;;7.50;5.27;;;;;;;25.39;42.11;100274.38;5131924;27;20232;-77
2021/07/27 01:51:31;;;;;;;7.00;4.55;;;;;;;25.42;42.45;100275.53;5115299;28;20265;-80
2021/07/27 01:54:02;;;;;;;5.30;4.75;;;;;;;25.56;42.04;100278.63;5114977;28;20031;-76
2021/07/27 01:56:30;;;;;;;6.13;4.63;;;;;;;25.46;41.91;100270.47;5116780;28;20454;-76
2021/07/27 01:58:57;;;;;;;5.43;4.53;;;;;;;25.36;42.42;100274.53;5131786;27;20039;-76
2021/07/27 02:01:27;;;;;;;8.00;5.07;;;;;;;25.30;42.79;100265.75;5115118;28;20032;-78
2021/07/27 02:03:55;;;;;;;11.15;5.05;;;;;;;25.31;42.88;100268.16;5114400;28;20028;-76
2021/07/27 02:06:21;;;;;;;4.80;4.32;;;;;;;25.32;42.99;100260.41;5115757;28;20474;-76
2021/07/27 02:08:55;;;;;;;8.55;4.80;;;;;;;25.39;42.93;100265.03;5115179;28;20127;-75
2021/07/27 02:11:30;;;;;;;4.93;4.45;;;;;;;25.44;41.91;100259.56;5114669;28;20039;-79
2021/07/27 02:14:11;;;;;;;61.38;45.25;;;;;;;25.42;41.97;100256.38;5115791;28;20035;-77
2021/07/27 02:16:37;;;;;;;36.55;31.40;;;;;;;25.42;42.18;100256.38;5115442;28;20104;-76
2021/07/27 02:19:06;;;;;;;27.58;23.70;;;;;;;25.24;42.51;100250.53;5114502;28;20047;-80
2021/07/27 02:21:32;;;;;;;20.10;18.00;;;;;;;25.20;42.40;100241.34;5114669;28;20118;-80
2021/07/27 02:24:00;;;;;;;15.65;14.25;;;;;;;25.21;42.73;100248.63;5114314;28;20188;-79
2021/07/27 02:26:25;;;;;;;17.85;16.05;;;;;;;25.13;42.98;100238.72;5114037;28;20066;-76
2021/07/27 02:28:54;;;;;;;28.05;25.40;;;;;;;25.20;42.74;100238.50;5114788;28;20027;-81
2021/07/27 02:31:31;;;;;;;24.70;22.17;;;;;;;25.17;42.53;100237.34;5113991;28;20032;-80
2021/07/27 02:34:00;;;;;;;20.20;18.15;;;;;;;25.17;42.70;100231.66;5114347;28;20023;-79
2021/07/27 02:36:25;;;;;;;14.23;12.82;;;;;;;25.18;42.34;100238.94;5114383;28;20024;-80
2021/07/27 02:38:53;;;;;;;10.45;9.35;;;;;;;25.18;42.23;100235.31;5114135;28;20027;-78
2021/07/27 02:41:25;;;;;;;9.02;7.07;;;;;;;25.14;42.43;100234.63;5113788;28;20027;-80
2021/07/27 02:43:56;;;;;;;8.18;7.38;;;;;;;25.03;42.32;100235.78;5113709;28;20028;-79
2021/07/27 02:46:25;;;;;;;7.68;6.93;;;;;;;25.06;42.66;100243.44;5113660;28;20481;-75
2021/07/27 02:48:52;;;;;;;11.63;8.48;;;;;;;25.08;43.11;100242.97;5130748;27;20028;-78
2021/07/27 02:51:18;;;;;;;7.57;6.68;;;;;;;25.04;43.00;100237.38;5113353;28;20493;-75
2021/07/27 02:53:43;;;;;;;5.88;5.38;;;;;;;25.03;43.02;100241.47;5113367;28;20027;-80
2021/07/27 02:56:09;;;;;;;6.70;6.10;;;;;;;25.00;43.06;100242.41;5113478;28;20032;-76
2021/07/27 02:58:40;;;;;;;7.22;6.22;;;;;;;25.00;42.99;100241.63;5113467;28;20092;-79
2021/07/27 03:01:06;;;;;;;7.90;5.75;;;;;;;24.92;43.56;100245.94;5130497;27;20053;-80
2021/07/27 03:03:37;;;;;;;12.35;8.90;;;;;;;24.86;43.30;100244.94;5130681;27;20023;-79
2021/07/27 03:06:05;;;;;;;9.45;8.52;;;;;;;24.82;43.39;100243.03;5113334;28;20032;-77
2021/07/27 03:09:23;;;;;;;10.98;9.98;;;;;;;24.85;43.55;100254.75;5113245;28;20454;-77
2021/07/27 03:11:19;;;;;;;16.95;8.40;;;;;;;24.94;43.20;100255.63;5113905;28;20444;-76
2021/07/27 03:13:50;;;;;;;9.02;8.13;;;;;;;24.97;43.63;100260.38;5112754;28;20024;-81
2021/07/27 03:16:17;;;;;;;8.32;7.55;;;;;;;25.02;43.50;100259.81;5112914;28;20409;-76
2021/07/27 03:18:44;;;;;;;8.75;7.93;;;;;;;24.95;43.81;100262.13;5113055;27;20034;-77
2021/07/27 03:21:13;;;;;;;8.13;7.32;;;;;;;24.89;43.90;100270.44;5113323;28;20355;-78
2021/07/27 03:23:48;;;;;;;12.75;11.52;;;;;;;24.86;44.05;100268.50;5113412;28;20385;-78
2021/07/27 03:26:20;;;;;;;10.80;9.70;;;;;;;24.90;43.97;100283.41;5112949;28;20032;-80
2021/07/27 03:28:47;;;;;;;9.30;8.50;;;;;;;24.77;43.58;100279.81;5112924;28;20024;-76
2021/07/27 03:31:16;;;;;;;11.50;10.30;;;;;;;24.76;43.45;100296.06;5130084;27;20032;-76
2021/07/27 03:33:43;;;;;;;12.48;11.35;;;;;;;24.79;42.90;100294.38;5113643;28;20042;-76
2021/07/27 03:36:11;;;;;;;9.82;8.82;;;;;;;24.78;42.40;100302.13;5113679;28;20066;-76
2021/07/27 03:38:36;;;;;;;8.43;7.60;;;;;;;24.88;42.42;100303.00;5113310;28;20032;-77
2021/07/27 03:41:07;;;;;;;9.07;8.18;;;;;;;24.88;43.02;100307.91;5113534;27;20043;-76
2021/07/27 03:43:39;;;;;;;11.93;8.95;;;;;;;24.91;43.15;100316.31;5129771;27;20050;-77
2021/07/27 03:46:05;;;;;;;10.93;8.48;;;;;;;24.98;42.91;100315.25;5113205;28;20035;-77
2021/07/27 03:48:33;;;;;;;14.73;8.27;;;;;;;24.93;42.41;100316.66;5112751;28;20409;-80
2021/07/27 03:50:59;;;;;;;7.88;6.72;;;;;;;24.87;42.93;100318.47;5112639;28;20120;-78
2021/07/27 03:53:25;;;;;;;7.28;6.57;;;;;;;24.87;42.53;100312.78;5112902;28;20127;-80
2021/07/27 03:55:54;;;;;;;12.35;7.10;;;;;;;24.92;42.75;100312.19;5113116;28;20439;-81
2021/07/27 03:58:20;;;;;;;9.73;7.65;;;;;;;25.00;42.99;100312.78;5112621;28;20034;-80
2021/07/27 04:00:46;;;;;;;10.82;5.97;;;;;;;25.02;42.97;100318.78;5129636;28;20036;-80
2021/07/27 04:03:13;;;;;;;10.20;9.00;;;;;;;25.07;42.57;100324.72;5095755;28;20042;-79
2021/07/27 04:05:41;;;;;;;12.38;11.25;;;;;;;25.12;43.06;100328.25;5116307;28;20024;-76
2021/07/27 04:08:12;;;;;;;10.82;9.60;;;;;;;25.23;42.75;100328.66;5116973;28;20075;-80
2021/07/27 04:10:38;;;;;;;9.88;8.63;;;;;;;25.14;42.86;100326.56;5116543;28;20023;-80
2021/07/27 04:13:08;;;;;;;15.10;7.97;;;;;;;25.18;42.95;100327.19;5116399;27;20039;-78
2021/07/27 04:15:37;;;;;;;14.20;7.32;;;;;;;25.24;42.81;100333.88;5116534;28;20044;-80
2021/07/27 04:18:08;;;;;;;9.60;6.72;;;;;;;25.10;42.82;100313.69;5116990;28;20035;-77
2021/07/27 04:20:34;;;;;;;8.43;6.28;;;;;;;25.35;42.32;100342.06;5117054;28;20130;-76
2021/07/27 04:23:08;;;;;;;7.10;6.38;;;;;;;25.50;42.22;100343.16;5116684;28;20448;-79
2021/07/27 04:25:37;;;;;;;9.20;5.95;;;;;;;25.61;41.49;100337.84;5117973;28;20020;-79
2021/07/27 04:28:05;;;;;;;9.20;6.53;;;;;;;25.85;41.73;100351.69;5116392;28;20020;-81
2021/07/27 04:30:35;;;;;;;6.75;6.07;;;;;;;26.02;41.07;100355.91;5116379;28;20027;-76
2021/07/27 04:33:05;;;;;;;7.20;6.50;;;;;;;26.22;40.50;100363.34;5133324;27;20023;-76
2021/07/27 04:35:31;;;;;;;6.88;6.20;;;;;;;26.27;40.24;100359.88;5116751;28;20028;-79
2021/07/27 04:37:58;;;;;;;9.15;6.32;;;;;;;26.51;39.83;100346.69;5133295;27;20470;-78
2021/07/27 04:40:26;;;;;;;7.60;5.80;;;;;;;26.73;38.83;100346.63;5133313;27;20035;-81
2021/07/27 04:42:51;;;;;;;10.93;5.72;;;;;;;27.00;38.40;100351.59;5133163;27;20024;-80
2021/07/27 04:45:17;;;;;;;6.60;6.00;;;;;;;27.35;38.62;100357.09;5116609;28;20078;-81
2021/07/27 04:47:43;;;;;;;7.43;6.25;;;;;;;27.63;38.60;100343.59;5133379;27;20503;-81
2021/07/27 04:50:14;;;;;;;6.90;5.95;;;;;;;27.99;38.13;100351.38;5133157;27;20028;-80
2021/07/27 04:52:49;;;;;;;8.45;5.30;;;;;;;28.29;36.69;100365.94;5116113;28;20034;-81
2021/07/27 04:55:20;;;;;;;6.95;5.93;;;;;;;28.51;36.12;100357.94;5116376;28;20055;-81
2021/07/27 04:57:46;;;;;;;6.95;5.55;;;;;;;28.79;35.67;100363.53;5115840;28;20030;-80
2021/07/27 05:00:15;;;;;;;7.80;6.00;;;;;;;29.03;34.65;100363.59;5116305;28;20126;-80
2021/07/27 05:02:41;;;;;;;6.80;5.90;;;;;;;29.38;34.53;100369.56;5115616;28;20133;-81
2021/07/27 05:05:07;;;;;;;10.93;6.03;;;;;;;29.73;34.20;100370.59;5115992;28;20042;-81
2021/07/27 05:07:33;;;;;;;6.38;5.53;;;;;;;29.99;34.35;100372.91;5115976;28;20062;-80
2021/07/27 05:10:04;;;;;;;6.82;5.90;;;;;;;30.11;34.12;100368.97;5115521;28;20059;-80
2021/07/27 05:12:35;;;;;;;6.68;5.95;;;;;;;30.36;33.58;100375.41;5115638;28;20024;-80
2021/07/27 05:15:00;;;;;;;9.32;5.18;;;;;;;30.47;33.38;100387.88;5132131;27;20109;-80
2021/07/27 05:17:31;;;;;;;10.30;6.30;;;;;;;30.41;34.36;100386.97;5132471;27;20116;-80
2021/07/27 05:20:03;;;;;;;6.97;5.45;;;;;;;30.59;34.01;100388.06;5132612;27;20027;-80
2021/07/27 05:22:29;;;;;;;6.13;5.27;;;;;;;30.96;33.14;100388.41;5115303;28;20063;-82
2021/07/27 05:24:57;;;;;;;6.90;5.82;;;;;;;31.23;32.68;100387.22;5132563;27;20063;-81
2021/07/27 05:27:24;;;;;;;9.00;5.88;;;;;;;31.35;32.71;100388.97;5132452;27;20104;-80
2021/07/27 05:29:54;;;;;;;8.88;4.88;;;;;;;31.80;32.08;100390.38;5116952;28;20474;-80
2021/07/27 05:32:21;;;;;;;6.70;5.50;;;;;;;32.27;31.40;100391.09;5115118;28;20027;-80
2021/07/27 05:34:47;;;;;;;6.20;5.45;;;;;;;32.55;30.81;100393.47;5114999;28;20053;-81
2021/07/27 05:37:13;;;;;;;7.93;5.30;;;;;;;32.83;30.28;100400.25;5132208;27;20043;-81
2021/07/27 05:39:39;;;;;;;9.38;6.07;;;;;;;32.82;30.68;100398.66;5114966;28;20085;-80
2021/07/27 05:42:04;;;;;;;8.30;6.35;;;;;;;33.07;31.06;100401.97;5115116;28;20043;-81
2021/07/27 05:44:33;;;;;;;47.25;34.47;;;;;;;33.28;30.41;100402.63;5115684;28;20035;-81
2021/07/27 05:47:04;;;;;;;61.78;42.75;;;;;;;33.37;30.41;100403.22;5115069;27;20028;-80
2021/07/27 05:49:33;;;;;;;14.75;9.77;;;;;;;32.91;29.65;100394.81;5115431;28;20462;-80
2021/07/27 05:51:58;;;;;;;14.32;11.07;;;;;;;33.28;29.41;100400.53;5115377;28;20032;-80
2021/07/27 05:54:25;;;;;;;12.43;8.48;;;;;;;33.52;29.26;100405.16;5115313;28;20534;-81
2021/07/27 05:56:51;;;;;;;12.85;7.88;;;;;;;33.70;28.93;100395.25;5114761;28;20053;-81
2021/07/27 05:59:21;;;;;;;11.82;6.68;;;;;;;33.63;29.34;100402.31;5115382;27;20532;-80
2021/07/27 06:01:48;;;;;;;12.10;7.55;;;;;;;33.24;31.40;100384.78;5131958;27;20474;-81
2021/07/27 06:04:14;;;;;;;8.50;7.45;;;;;;;32.82;32.30;100392.91;5114992;28;20031;-80
2021/07/27 06:06:45;;;;;;;8.10;7.30;;;;;;;32.59;32.42;100394.00;5132160;27;20027;-81
2021/07/27 06:09:11;;;;;;;14.73;7.40;;;;;;;32.58;32.40;100396.09;5114329;28;20478;-80
2021/07/27 06:11:37;;;;;;;9.18;6.50;;;;;;;33.01;31.61;100398.28;5131657;27;20027;-80
2021/07/27 06:14:04;;;;;;;14.18;7.47;;;;;;;33.46;31.54;100402.25;5115554;27;20115;-80
2021/07/27 06:16:30;;;;;;;7.72;6.75;;;;;;;33.62;31.46;100403.63;5113980;28;20047;-81
2021/07/27 06:18:59;;;;;;;11.00;7.25;;;;;;;33.79;28.91;100395.81;5114152;28;20024;-80
2021/07/27 06:21:27;;;;;;;11.38;6.75;;;;;;;33.99;27.94;100402.72;5114316;28;20489;-81
2021/07/27 06:23:55;;;;;;;11.40;10.13;;;;;;;34.07;28.23;100392.22;5131851;27;20414;-81
2021/07/27 06:26:23;;;;;;;12.00;8.43;;;;;;;34.27;28.29;100403.56;5113577;28;20377;-80
2021/07/27 06:28:49;;;;;;;13.18;7.32;;;;;;;34.75;27.52;100393.88;5113716;28;20035;-81
2021/07/27 06:31:20;;;;;;;15.35;7.63;;;;;;;34.94;27.52;100408.56;5113834;28;20069;-81
2021/07/27 06:33:46;;;;;;;16.45;8.85;;;;;;;35.52;26.59;100399.25;5130860;27;20034;-81
2021/07/27 06:36:13;;;;;;;16.25;10.75;;;;;;;35.80;26.32;100417.28;5131169;27;20398;-81
2021/07/27 06:38:40;;;;;;;18.45;13.82;;;;;;;35.68;26.52;100415.75;5113929;28;20448;-81
2021/07/27 06:41:12;;;;;;;18.75;12.32;;;;;;;35.52;26.69;100419.50;5114745;28;20032;-81
2021/07/27 06:43:41;;;;;;;22.77;12.38;;;;;;;35.06;28.45;100412.25;5113931;28;20019;-81
2021/07/27 06:46:12;;;;;;;16.58;12.18;;;;;;;34.10;30.13;100417.97;5115167;27;20024;-81
2021/07/27 06:48:39;;;;;;;16.55;12.13;;;;;;;34.62;29.41;100411.75;5114694;28;20051;-81
2021/07/27 06:51:15;;;;;;;20.80;13.10;;;;;;;34.61;29.72;100415.16;5114668;27;20024;-80
2021/07/27 06:53:41;;;;;;;21.27;14.50;;;;;;;35.13;29.89;100409.59;5113895;28;20554;-81
2021/07/27 06:56:08;;;;;;;20.20;14.23;;;;;;;34.81;29.86;100405.41;5113607;28;20019;-81
2021/07/27 06:58:35;;;;;;;21.98;14.35;;;;;;;34.79;30.21;100408.84;5113190;28;20024;-81
2021/07/27 07:01:11;;;;;;;20.55;12.55;;;;;;;34.76;30.17;100420.66;5113614;28;20059;-80
2021/07/27 07:03:40;;;;;;;17.83;13.40;;;;;;;35.10;29.03;100419.34;5112622;28;20122;-80
2021/07/27 07:06:11;;;;;;;21.77;13.23;;;;;;;35.17;29.54;100418.00;5113117;28;20076;-81
2021/07/27 07:08:38;;;;;;;21.15;13.43;;;;;;;34.78;30.44;100413.03;5096033;28;20031;-81
2021/07/27 07:11:10;;;;;;;21.92;14.68;;;;;;;34.89;30.35;100415.94;5112757;27;20066;-81
2021/07/27 07:13:36;;;;;;;22.80;15.45;;;;;;;34.21;31.84;100422.97;5114279;27;20027;-81
2021/07/27 07:16:10;;;;;;;31.42;17.52;;;;;;;34.03;32.82;100421.34;5112698;28;20051;-80
2021/07/27 07:18:38;;;;;;;21.23;16.02;;;;;;;34.08;31.68;100422.66;5112632;28;20027;-80
2021/07/27 07:21:06;;;;;;;27.25;17.08;;;;;;;33.89;32.36;100417.34;5112707;28;20100;-80
2021/07/27 07:23:33;;;;;;;16.38;14.13;;;;;;;34.67;30.69;100430.38;5113322;28;20031;-81
2021/07/27 07:26:02;;;;;;;21.25;15.05;;;;;;;34.95;29.95;100426.72;5113046;28;20035;-81
2021/07/27 07:28:27;;;;;;;22.88;15.00;;;;;;;35.17;29.53;100429.56;5113351;28;20020;-81
2021/07/27 07:30:53;;;;;;;21.80;14.90;;;;;;;35.58;29.31;100434.72;5112690;28;20371;-82
2021/07/27 07:33:18;;;;;;;18.27;13.27;;;;;;;35.51;27.72;100432.41;5113122;28;20020;-82
2021/07/27 07:35:44;;;;;;;19.90;13.82;;;;;;;35.72;27.76;100433.63;5112599;28;20429;-81
2021/07/27 07:38:13;;;;;;;16.17;12.45;;;;;;;35.75;27.45;100438.34;5113157;28;20027;-81
2021/07/27 07:40:43;;;;;;;14.13;12.40;;;;;;;35.91;26.84;100448.28;5112565;28;20032;-81
2021/07/27 07:43:09;;;;;;;17.10;11.73;;;;;;;35.75;26.85;100434.69;5112502;28;20026;-81
2021/07/27 07:45:40;;;;;;;16.20;11.93;;;;;;;36.14;25.40;100446.06;5112322;28;20031;-81
2021/07/27 07:48:06;;;;;;;17.42;12.68;;;;;;;36.40;24.82;100434.84;5113014;28;20081;-81
2021/07/27 07:50:32;;;;;;;14.70;11.88;;;;;;;36.89;24.65;100431.31;5112492;28;20035;-81
2021/07/27 07:53:02;;;;;;;16.80;10.65;;;;;;;37.44;22.49;100432.09;5112687;28;20066;-80
2021/07/27 07:55:29;;;;;;;12.32;9.70;;;;;;;37.74;21.54;100417.47;5113257;28;20363;-82
2021/07/27 07:57:55;;;;;;;12.50;10.50;;;;;;;37.94;22.82;100413.28;5112608;28;20035;-82
2021/07/27 08:00:23;;;;;;;11.80;8.68;;;;;;;37.26;21.57;100406.69;5114235;28;20063;-79
2021/07/27 08:02:54;;;;;;;15.95;8.15;;;;;;;37.60;21.40;100418.69;5113956;28;20034;-80
2021/07/27 08:05:21;;;;;;;16.38;9.77;;;;;;;37.91;22.83;100414.38;5129427;28;20058;-80
2021/07/27 08:07:46;;;;;;;14.40;8.93;;;;;;;38.72;22.29;100417.06;5112714;28;20020;-80
2021/07/27 08:10:13;;;;;;;18.80;9.77;;;;;;;38.77;21.59;100401.69;5112136;28;20032;-80
2021/07/27 08:12:39;;;;;;;13.02;8.82;;;;;;;38.11;22.51;100410.13;5111878;28;20028;-80
2021/07/27 08:15:06;;;;;;;9.20;7.65;;;;;;;37.99;20.86;100404.47;5111840;28;20066;-80
2021/07/27 08:17:34;;;;;;;11.07;7.28;;;;;;;38.00;21.85;100411.84;5129190;28;20023;-81
2021/07/27 08:20:00;;;;;;;7.57;6.50;;;;;;;37.75;20.49;100411.09;5112070;28;20034;-80
2021/07/27 08:22:27;;;;;;;8.00;7.28;;;;;;;37.85;20.95;100416.56;5129176;28;20019;-80
2021/07/27 08:24:52;;;;;;;10.38;7.57;;;;;;;38.80;21.03;100411.44;5112365;28;20039;-81
2021/07/27 08:27:18;;;;;;;8.23;6.88;;;;;;;38.09;20.84;100412.78;5112251;28;20020;-81
2021/07/27 08:29:44;;;;;;;7.68;6.88;;;;;;;38.25;19.93;100415.44;5129021;28;20031;-81
2021/07/27 08:32:10;;;;;;;9.50;6.40;;;;;;;38.39;19.90;100416.31;5112520;28;20027;-81
2021/07/27 08:34:37;;;;;;;7.30;6.13;;;;;;;38.48;18.57;100415.91;5112408;28;20023;-81
2021/07/27 08:37:04;;;;;;;7.18;6.05;;;;;;;38.38;19.71;100417.66;5113351;28;20027;-81
2021/07/27 08:39:30;;;;;;;7.40;6.65;;;;;;;38.44;20.26;100424.16;5112660;28;20039;-81
2021/07/27 08:42:02;;;;;;;9.55;7.03;;;;;;;38.49;20.57;100431.22;5129025;28;20028;-82
2021/07/27 08:44:30;;;;;;;18.75;6.82;;;;;;;38.72;19.88;100422.88;5129129;28;20032;-81
2021/07/27 08:46:58;;;;;;;6.60;5.97;;;;;;;38.60;19.34;100433.16;5111831;28;20517;-81
2021/07/27 08:49:23;;;;;;;8.93;6.80;;;;;;;38.48;19.72;100421.72;5112585;28;20031;-81
2021/07/27 08:51:52;;;;;;;6.55;5.68;;;;;;;38.18;20.37;100430.59;5116175;28;20072;-81
2021/07/27 08:54:18;;;;;;;7.45;6.60;;;;;;;39.01;20.00;100424.78;5115725;28;20031;-81
2021/07/27 08:56:52;;;;;;;9.02;7.53;;;;;;;39.02;19.89;100429.25;5115706;28;20077;-81
2021/07/27 08:59:18;;;;;;;12.20;7.32;;;;;;;39.25;19.04;100420.91;5116308;28;20502;-81
2021/07/27 09:01:44;;;;;;;14.50;10.27;;;;;;;40.01;17.98;100423.31;5117416;28;20024;-81
2021/07/27 09:04:11;;;;;;;14.10;10.32;;;;;;;40.64;18.04;100421.28;5115495;28;20128;-81
2021/07/27 09:06:37;;;;;;;9.38;8.25;;;;;;;40.65;17.22;100427.94;5117132;28;20059;-82
2021/07/27 09:09:03;;;;;;;16.45;13.50;;;;;;;39.97;17.80;100423.66;5115406;28;20027;-81
2021/07/27 09:11:29;;;;;;;16.58;12.57;;;;;;;40.21;17.79;100421.81;5117248;28;20085;-81
2021/07/27 09:13:58;;;;;;;14.52;11.35;;;;;;;41.07;17.53;100429.50;5115453;28;20039;-82
2021/07/27 09:16:24;;;;;;;19.52;13.25;;;;;;;41.07;16.99;100429.50;5115231;28;20413;-82
2021/07/27 09:19:00;;;;;;;12.60;9.70;;;;;;;40.24;15.07;100424.38;5115477;28;20441;-81
2021/07/27 09:21:27;;;;;;;8.20;7.10;;;;;;;39.31;15.76;100420.78;5132332;27;20123;-81
2021/07/27 09:23:54;;;;;;;10.07;4.90;;;;;;;38.49;13.96;100411.66;5115014;28;20027;-81
2021/07/27 09:26:21;;;;;;;5.65;5.07;;;;;;;39.34;16.10;100418.91;5115078;28;20462;-82
2021/07/27 09:28:49;;;;;;;8.80;6.93;;;;;;;39.55;16.95;100417.66;5116403;28;20077;-81
2021/07/27 09:31:26;;;;;;;8.70;6.60;;;;;;;40.16;16.45;100416.91;5115069;28;20058;-82
2021/07/27 09:33:52;;;;;;;8.68;5.82;;;;;;;41.08;14.66;100413.53;5115506;28;20266;-81
2021/07/27 09:36:28;;;;;;;8.35;5.20;;;;;;;40.88;14.90;100423.06;5115035;28;20490;-81
2021/07/27 09:39:02;;;;;;;5.38;4.82;;;;;;;40.01;16.21;100421.19;5115355;28;20019;-81
2021/07/27 09:41:31;;;;;;;6.78;5.05;;;;;;;39.86;16.35;100412.25;5132786;27;20362;-81
2021/07/27 09:43:58;;;;;;;6.15;4.80;;;;;;;39.22;16.70;100419.13;5114735;28;20110;-81
2021/07/27 09:46:26;;;;;;;7.28;5.38;;;;;;;39.22;16.55;100409.63;5114745;28;20059;-81
2021/07/27 09:48:53;;;;;;;6.50;4.95;;;;;;;38.64;16.64;100411.13;5114534;28;20051;-81
2021/07/27 09:51:21;;;;;;;5.93;5.07;;;;;;;39.24;16.13;100413.53;5132144;27;20412;-80
2021/07/27 09:53:48;;;;;;;6.50;4.97;;;;;;;39.65;16.45;100409.28;5114406;28;20026;-80
2021/07/27 09:56:14;;;;;;;7.10;6.07;;;;;;;40.03;19.15;100412.66;5132001;27;20058;-81
2021/07/27 09:58:40;;;;;;;6.65;5.95;;;;;;;39.55;19.34;100417.66;5114596;28;20461;-81
2021/07/27 10:01:11;;;;;;;6.50;5.90;;;;;;;39.23;20.04;100417.78;5130813;27;20123;-81
2021/07/27 10:03:54;;;;;;;8.73;5.38;;;;;;;39.35;20.15;100409.59;5113505;28;20023;-81
2021/07/27 10:06:44;;;;;;;8.60;5.50;;;;;;;39.66;19.48;100404.22;5131213;27;20027;-80
2021/07/27 10:09:31;;;;;;;9.10;5.43;;;;;;;39.23;20.05;100408.25;5114713;28;20024;-81
2021/07/27 10:12:08;;;;;;;6.07;5.43;;;;;;;39.49;19.65;100414.06;5131162;27;20097;-81
2021/07/27 10:14:42;;;;;;;12.02;5.43;;;;;;;39.59;19.64;100410.72;5114099;28;20028;-81
2021/07/27 10:17:09;;;;;;;6.65;5.22;;;;;;;39.60;19.15;100412.28;5114494;28;20428;-80
2021/07/27 10:19:45;;;;;;;7.40;5.03;;;;;;;40.05;19.29;100398.28;5114012;28;20032;-80
2021/07/27 10:22:15;;;;;;;6.32;5.25;;;;;;;40.25;18.75;100401.84;5114549;28;20062;-80
2021/07/27 10:24:49;;;;;;;5.55;4.90;;;;;;;39.73;19.19;100400.63;5115626;28;20475;-80
2021/07/27 10:27:23;;;;;;;5.97;5.25;;;;;;;40.17;18.93;100395.94;5131293;27;20090;-81
2021/07/27 10:29:49;;;;;;;8.90;5.20;;;;;;;40.38;18.41;100398.09;5114368;28;20519;-80
2021/07/27 10:32:16;;;;;;;8.43;5.13;;;;;;;40.85;18.09;100400.88;5114308;28;20028;-81
2021/07/27 10:34:43;;;;;;;5.15;4.65;;;;;;;41.05;16.93;100396.38;5131073;27;20405;-81
2021/07/27 10:37:11;;;;;;;6.47;5.18;;;;;;;40.61;18.30;100395.44;5114408;28;20024;-81
2021/07/27 10:40:06;;;;;;;6.53;5.90;;;;;;;40.19;18.00;100383.72;5096829;28;20093;-81
2021/07/27 10:42:40;;;;;;;5.32;4.82;;;;;;;40.86;17.27;100393.69;5091758;28;20402;-81
2021/07/27 10:45:26;;;;;;;6.97;5.57;;;;;;;41.34;17.65;100394.25;5114899;28;20055;-83
2021/07/27 10:47:53;;;;;;;6.50;5.35;;;;;;;40.63;17.76;100381.84;5113104;28;20097;-81
2021/07/27 10:50:31;;;;;;;5.68;5.07;;;;;;;40.11;17.79;100388.66;5113541;28;20030;-81
2021/07/27 10:53:10;;;;;;;6.68;4.80;;;;;;;39.84;18.37;100385.81;5113575;28;20024;-81
2021/07/27 10:55:43;;;;;;;6.03;4.75;;;;;;;39.64;17.42;100383.66;5130443;27;20085;-81
2021/07/27 10:58:19;;;;;;;5.20;4.70;;;;;;;39.79;18.64;100389.63;5113212;28;20089;-81
2021/07/27 11:00:44;;;;;;;5.38;4.88;;;;;;;39.50;18.62;100380.72;5113221;28;20040;-80
2021/07/27 11:03:10;;;;;;;5.60;4.72;;;;;;;39.66;16.78;100370.06;5130364;27;20355;-81
2021/07/27 11:05:36;;;;;;;4.68;4.28;;;;;;;40.22;16.55;100382.59;5112824;27;20027;-81
2021/07/27 11:08:02;;;;;;;5.15;4.63;;;;;;;40.13;17.75;100386.00;5112537;28;20030;-81
2021/07/27 11:10:29;;;;;;;7.32;5.05;;;;;;;40.35;17.31;100388.34;5130111;27;20032;-81
2021/07/27 11:12:58;;;;;;;4.78;4.32;;;;;;;39.32;18.30;100375.81;5129592;27;20023;-81
2021/07/27 11:15:28;;;;;;;4.78;4.43;;;;;;;39.25;19.22;100379.38;5112768;28;20055;-82
2021/07/27 11:18:02;;;;;;;4.32;3.85;;;;;;;39.23;18.29;100379.94;5130070;27;20093;-81
2021/07/27 11:20:43;;;;;;;7.35;4.68;;;;;;;39.95;17.36;100373.94;5130278;27;20502;-82
2021/07/27 11:23:14;;;;;;;6.47;4.53;;;;;;;40.03;16.36;100374.78;5109596;28;20551;-81
2021/07/27 11:25:49;;;;;;;5.30;4.30;;;;;;;39.57;16.69;100376.31;5112837;28;20068;-81
2021/07/27 11:28:15;;;;;;;5.18;4.70;;;;;;;40.03;15.65;100377.69;5129909;27;20051;-81
2021/07/27 11:30:43;;;;;;;4.13;3.83;;;;;;;40.34;14.23;100375.13;5112693;28;20054;-82
2021/07/27 11:33:19;;;;;;;8.35;4.95;;;;;;;40.03;15.54;100366.03;5112726;28;20027;-82
2021/07/27 11:35:47;;;;;;;7.82;4.28;;;;;;;40.75;14.20;100370.66;5096436;28;20359;-82
2021/07/27 11:38:42;;;;;;;4.40;3.42;;;;;;;40.08;12.91;100351.94;5130209;27;20081;-82
2021/07/27 11:41:12;;;;;;;3.65;3.35;;;;;;;39.39;15.38;100348.94;5091393;28;20108;-82
2021/07/27 11:43:42;;;;;;;5.90;3.97;;;;;;;39.69;15.79;100356.53;5113607;28;20493;-82
2021/07/27 11:46:16;;;;;;;4.28;3.88;;;;;;;39.78;15.39;100351.00;5112633;28;20019;-83
2021/07/27 11:48:55;;;;;;;3.60;3.30;;;;;;;39.92;15.43;100357.56;5130275;27;20342;-81
2021/07/27 11:51:37;;;;;;;3.75;3.45;;;;;;;40.02;14.95;100352.84;5113907;28;20028;-82
2021/07/27 11:54:02;;;;;;;3.75;3.45;;;;;;;39.42;14.19;100347.81;5112478;28;20039;-82
2021/07/27 11:56:30;;;;;;;4.18;3.80;;;;;;;40.28;14.35;100359.94;5112750;28;20172;-81
2021/07/27 11:59:03;;;;;;;4.10;3.30;;;;;;;40.16;13.49;100353.56;5114348;28;20091;-82
2021/07/27 12:01:42;;;;;;;5.22;3.60;;;;;;;40.70;14.45;100351.97;5129630;28;20024;-82